Time;durP1;ratioP1;P1;durP2;ratioP2;P2;SDS_P1;SDS_P2;PMS_P1;PMS_P2;Temp;Humidity;BMP_temperature;BMP_pressure;BME280_temperature;BME280_humidity;BME280_pressure;Samples;Min_cycle;Max_cycle;Signal;HPM_P1;HPM_P2
2023/08/14 00:00:50;;;;;;;0.40;0.40;;;;;;;;;;5013471;28;20221;-84
2023/08/14 00:03:20;;;;;;;0.40;0.40;;;;;;;;;;5013201;28;20207;-84
2023/08/14 00:05:49;;;;;;;0.30;0.30;;;;;;;;;;5013357;28;20298;-83
2023/08/14 00:08:17;;;;;;;0.70;0.70;;;;;;;;;;5013047;28;20210;-84
2023/08/14 00:10:47;;;;;;;0.40;0.40;;;;;;;;;;5012993;28;20223;-83
2023/08/14 00:13:20;;;;;;;2.13;0.83;;;;;;;;;;5013505;28;20280;-84
2023/08/14 00:15:48;;;;;;;1.33;1.27;;;;;;;;;;5012701;28;20231;-83
2023/08/14 00:18:17;;;;;;;2.20;1.97;;;;;;;;;;5012879;28;20440;-83
2023/08/14 00:20:46;;;;;;;3.50;2.90;;;;;;;;;;5012834;28;20195;-84
2023/08/14 00:23:15;;;;;;;9.63;3.43;;;;;;;;;;5012646;28;20195;-84
2023/08/14 00:25:43;;;;;;;8.47;3.40;;;;;;;;;;5012570;28;20214;-84
2023/08/14 00:28:13;;;;;;;6.03;3.43;;;;;;;;;;5012897;28;20207;-84
2023/08/14 00:30:41;;;;;;;2.17;1.97;;;;;;;;;;5012500;28;20203;-84
2023/08/14 00:33:10;;;;;;;7.03;3.13;;;;;;;;;;5012256;28;20195;-84
2023/08/14 00:35:39;;;;;;;7.00;3.50;;;;;;;;;;5012667;28;20274;-84
2023/08/14 00:38:07;;;;;;;2.17;1.73;;;;;;;;;;5012759;28;20227;-84
2023/08/14 00:40:36;;;;;;;5.37;1.90;;;;;;;;;;5012243;28;20204;-83
2023/08/14 00:43:04;;;;;;;5.53;3.33;;;;;;;;;;5012170;28;20199;-84
2023/08/14 00:45:34;;;;;;;4.97;2.37;;;;;;;;;;5012279;28;20264;-84
2023/08/14 00:48:13;;;;;;;2.47;2.27;;;;;;;;;;5012249;28;20207;-84
2023/08/14 00:50:42;;;;;;;6.83;2.20;;;;;;;;;;5012055;28;20203;-88
2023/08/14 00:53:12;;;;;;;4.00;2.30;;;;;;;;;;5012750;28;20211;-89
2023/08/14 00:55:40;;;;;;;6.63;3.00;;;;;;;;;;5012617;28;20211;-88
2023/08/14 00:58:09;;;;;;;1.63;1.53;;;;;;;;;;5012274;28;20235;-87
2023/08/14 01:00:39;;;;;;;4.53;1.23;;;;;;;;;;5011773;28;20207;-88
2023/08/14 01:03:08;;;;;;;5.13;2.90;;;;;;;;;;5012518;28;20206;-87
2023/08/14 01:05:36;;;;;;;3.80;2.30;;;;;;;;;;5012679;28;20206;-88
2023/08/14 01:08:05;;;;;;;2.77;2.50;;;;;;;;;;5012224;28;20271;-87
2023/08/14 01:10:45;;;;;;;8.77;3.17;;;;;;;;;;5012118;28;20258;-88
2023/08/14 01:13:19;;;;;;;5.77;2.97;;;;;;;;;;5012398;28;20272;-88
2023/08/14 01:15:51;;;;;;;7.90;3.00;;;;;;;;;;5012046;28;20292;-88
2023/08/14 01:18:21;;;;;;;12.57;3.43;;;;;;;;;;5011572;28;20215;-89
2023/08/14 01:20:55;;;;;;;8.50;3.47;;;;;;;;;;5012495;28;20212;-88
2023/08/14 01:23:25;;;;;;;5.67;2.67;;;;;;;;;;5012282;28;20200;-89
2023/08/14 01:25:55;;;;;;;4.73;2.60;;;;;;;;;;5011931;28;20461;-87
2023/08/14 01:28:24;;;;;;;6.20;3.10;;;;;;;;;;5011718;28;20207;-89
2023/08/14 01:30:52;;;;;;;5.73;3.27;;;;;;;;;;5012657;28;20200;-88
2023/08/14 01:33:21;;;;;;;5.37;3.70;;;;;;;;;;5011883;28;20218;-88
2023/08/14 01:35:52;;;;;;;2.23;1.90;;;;;;;;;;5011454;28;20198;-88
2023/08/14 01:38:23;;;;;;;2.37;1.57;;;;;;;;;;5012510;28;20226;-88
2023/08/14 01:40:56;;;;;;;5.50;2.90;;;;;;;;;;5012120;28;20210;-83
2023/08/14 01:43:28;;;;;;;5.50;3.97;;;;;;;;;;5011559;28;20207;-83
2023/08/14 01:45:57;;;;;;;14.27;5.20;;;;;;;;;;5011645;28;20294;-84
2023/08/14 01:48:26;;;;;;;6.00;3.73;;;;;;;;;;5011471;28;20220;-83
2023/08/14 01:50:57;;;;;;;10.53;4.60;;;;;;;;;;5011650;28;20325;-84
2023/08/14 01:53:25;;;;;;;8.60;4.53;;;;;;;;;;5011217;28;20196;-83
2023/08/14 01:55:54;;;;;;;9.73;5.03;;;;;;;;;;5012068;28;20214;-84
2023/08/14 01:58:23;;;;;;;7.13;4.50;;;;;;;;;;5011485;28;20463;-83
2023/08/14 02:00:53;;;;;;;9.40;4.33;;;;;;;;;;5011126;28;20195;-84
2023/08/14 02:03:21;;;;;;;6.33;2.87;;;;;;;;;;5011464;28;20205;-83
2023/08/14 02:05:50;;;;;;;5.70;2.57;;;;;;;;;;5011380;28;20196;-84
2023/08/14 02:08:18;;;;;;;9.77;3.47;;;;;;;;;;5012036;28;20199;-84
2023/08/14 02:10:47;;;;;;;9.37;3.93;;;;;;;;;;5011200;28;20210;-84
2023/08/14 02:13:15;;;;;;;5.40;3.97;;;;;;;;;;5015026;28;20261;-84
2023/08/14 02:15:46;;;;;;;9.77;4.73;;;;;;;;;;5015575;28;20214;-84
2023/08/14 02:18:16;;;;;;;8.13;5.27;;;;;;;;;;5014692;28;20237;-84
2023/08/14 02:20:47;;;;;;;12.40;4.93;;;;;;;;;;5014695;28;20253;-84
2023/08/14 02:23:16;;;;;;;14.03;6.00;;;;;;;;;;5015610;28;20211;-84
2023/08/14 02:25:46;;;;;;;7.30;5.17;;;;;;;;;;5015240;28;20207;-83
2023/08/14 02:28:14;;;;;;;10.23;5.83;;;;;;;;;;5014558;28;20204;-84
2023/08/14 02:30:42;;;;;;;11.23;5.20;;;;;;;;;;5015180;28;20271;-84
2023/08/14 02:33:11;;;;;;;7.73;3.20;;;;;;;;;;5015163;28;20202;-84
2023/08/14 02:35:41;;;;;;;6.80;4.77;;;;;;;;;;5015218;28;20210;-88
2023/08/14 02:38:09;;;;;;;16.47;5.07;;;;;;;;;;5015077;28;20230;-88
2023/08/14 02:40:39;;;;;;;10.07;6.43;;;;;;;;;;5015195;28;20214;-88
2023/08/14 02:43:08;;;;;;;13.33;4.37;;;;;;;;;;5015100;28;20225;-87
2023/08/14 02:45:37;;;;;;;5.93;3.07;;;;;;;;;;5014638;28;20228;-88
2023/08/14 02:48:06;;;;;;;4.53;3.27;;;;;;;;;;5014897;28;20217;-89
2023/08/14 02:50:34;;;;;;;7.27;4.43;;;;;;;;;;5014558;28;20210;-87
2023/08/14 02:53:05;;;;;;;11.37;5.43;;;;;;;;;;5015158;28;20200;-88
2023/08/14 02:55:33;;;;;;;9.87;5.90;;;;;;;;;;5014692;28;20306;-89
2023/08/14 02:58:02;;;;;;;7.33;3.57;;;;;;;;;;5014623;28;20245;-88
2023/08/14 03:00:30;;;;;;;11.60;6.30;;;;;;;;;;5014835;28;20206;-88
2023/08/14 03:02:59;;;;;;;9.13;5.03;;;;;;;;;;5014429;28;20232;-88
2023/08/14 03:05:28;;;;;;;5.90;4.00;;;;;;;;;;5014389;28;20208;-88
2023/08/14 03:07:56;;;;;;;6.47;4.90;;;;;;;;;;5014427;28;20196;-88
2023/08/14 03:10:26;;;;;;;9.23;5.60;;;;;;;;;;5014460;28;20210;-88
2023/08/14 03:12:55;;;;;;;9.07;4.50;;;;;;;;;;5014130;28;20295;-88
2023/08/14 03:15:23;;;;;;;9.47;5.80;;;;;;;;;;5014921;28;20202;-88
2023/08/14 03:17:52;;;;;;;11.63;5.83;;;;;;;;;;5014187;28;20321;-84
2023/08/14 03:20:21;;;;;;;8.87;4.53;;;;;;;;;;5013731;28;20266;-85
2023/08/14 03:22:49;;;;;;;11.93;5.40;;;;;;;;;;5013499;28;20199;-83
2023/08/14 03:25:18;;;;;;;8.17;5.20;;;;;;;;;;5014010;28;20206;-83
2023/08/14 03:27:48;;;;;;;13.03;6.00;;;;;;;;;;5013725;28;20195;-84
2023/08/14 03:30:16;;;;;;;14.23;5.10;;;;;;;;;;5013074;28;20207;-83
2023/08/14 03:32:45;;;;;;;11.47;6.07;;;;;;;;;;5013801;28;20207;-88
2023/08/14 03:35:13;;;;;;;11.70;5.83;;;;;;;;;;5014368;28;20213;-87
2023/08/14 03:37:42;;;;;;;8.67;5.70;;;;;;;;;;5013932;28;20195;-84
2023/08/14 03:40:11;;;;;;;7.93;2.90;;;;;;;;;;5013822;28;20199;-83
2023/08/14 03:42:39;;;;;;;14.07;6.83;;;;;;;;;;5013510;28;20210;-83
2023/08/14 03:45:10;;;;;;;9.43;6.37;;;;;;;;;;5013901;28;20206;-83
2023/08/14 03:47:38;;;;;;;10.80;6.03;;;;;;;;;;5012820;28;20195;-84
2023/08/14 03:50:07;;;;;;;14.03;5.73;;;;;;;;;;5013638;28;20211;-84
2023/08/14 03:52:36;;;;;;;2.13;1.80;;;;;;;;;;5013500;28;20228;-84
2023/08/14 03:55:04;;;;;;;8.63;4.27;;;;;;;;;;5013111;28;20210;-84
2023/08/14 03:57:33;;;;;;;4.70;3.17;;;;;;;;;;5012954;28;20274;-84
2023/08/14 04:00:02;;;;;;;9.00;5.93;;;;;;;;;;5013236;28;20223;-85
2023/08/14 04:02:32;;;;;;;13.53;6.43;;;;;;;;;;5013450;28;20242;-83
2023/08/14 04:05:00;;;;;;;9.57;5.50;;;;;;;;;;5012764;28;20203;-83
2023/08/14 04:07:29;;;;;;;11.47;5.13;;;;;;;;;;5013109;28;20267;-84
2023/08/14 04:09:57;;;;;;;5.33;3.63;;;;;;;;;;5013545;28;20199;-83
2023/08/14 04:12:25;;;;;;;10.03;6.00;;;;;;;;;;5012878;28;20203;-83
2023/08/14 04:14:54;;;;;;;9.13;5.13;;;;;;;;;;5013013;28;20210;-84
2023/08/14 04:17:22;;;;;;;13.27;7.17;;;;;;;;;;5012958;28;20199;-84
2023/08/14 04:19:52;;;;;;;9.30;6.13;;;;;;;;;;5012797;28;20282;-83
2023/08/14 04:22:21;;;;;;;13.67;7.63;;;;;;;;;;5012635;28;20191;-84
2023/08/14 04:24:49;;;;;;;14.37;5.80;;;;;;;;;;5012508;28;20195;-83
2023/08/14 04:27:18;;;;;;;11.27;6.77;;;;;;;;;;5013146;28;20215;-84
2023/08/14 04:29:46;;;;;;;8.33;6.10;;;;;;;;;;5012873;28;20203;-84
2023/08/14 04:32:15;;;;;;;9.93;6.63;;;;;;;;;;5012470;28;20202;-83
2023/08/14 04:34:44;;;;;;;11.77;5.97;;;;;;;;;;5012218;28;20210;-83
2023/08/14 04:37:14;;;;;;;12.23;6.87;;;;;;;;;;5012936;28;20219;-84
2023/08/14 04:39:42;;;;;;;9.37;5.17;;;;;;;;;;5012405;28;20272;-83
2023/08/14 04:42:10;;;;;;;11.57;6.90;;;;;;;;;;5012499;28;20199;-83
2023/08/14 04:44:39;;;;;;;8.43;5.50;;;;;;;;;;5012791;28;20203;-83
2023/08/14 04:47:07;;;;;;;8.60;5.50;;;;;;;;;;5012716;28;20207;-84
2023/08/14 04:49:36;;;;;;;8.73;6.07;;;;;;;;;;5012020;28;20229;-84
2023/08/14 04:52:05;;;;;;;9.90;7.03;;;;;;;;;;5012622;28;20223;-84
2023/08/14 04:54:34;;;;;;;7.90;5.50;;;;;;;;;;5012773;28;20207;-83
2023/08/14 04:57:03;;;;;;;10.40;5.47;;;;;;;;;;5011875;28;20299;-84
2023/08/14 04:59:34;;;;;;;10.07;6.93;;;;;;;;;;5011694;28;20234;-84
2023/08/14 05:02:03;;;;;;;10.00;6.60;;;;;;;;;;5012343;28;20211;-83
2023/08/14 05:04:32;;;;;;;10.97;6.37;;;;;;;;;;5012493;28;20297;-84
2023/08/14 05:07:00;;;;;;;7.83;5.17;;;;;;;;;;5012111;28;20202;-84
2023/08/14 05:09:29;;;;;;;10.67;7.87;;;;;;;;;;5012447;28;20198;-88
2023/08/14 05:11:59;;;;;;;14.67;7.00;;;;;;;;;;5012713;28;20211;-88
2023/08/14 05:14:28;;;;;;;9.50;7.10;;;;;;;;;;5013095;28;20206;-88
2023/08/14 05:16:56;;;;;;;11.83;7.77;;;;;;;;;;5012258;28;20261;-88
2023/08/14 05:19:25;;;;;;;10.47;6.60;;;;;;;;;;5012705;28;20219;-88
2023/08/14 05:21:53;;;;;;;10.67;6.97;;;;;;;;;;5012211;28;20204;-88
2023/08/14 05:24:22;;;;;;;8.80;5.77;;;;;;;;;;5012262;28;20209;-87
2023/08/14 05:26:50;;;;;;;5.77;3.90;;;;;;;;;;5012504;28;20203;-88
2023/08/14 05:29:20;;;;;;;6.97;5.27;;;;;;;;;;5012537;28;20243;-88
2023/08/14 05:31:49;;;;;;;9.50;6.30;;;;;;;;;;5013243;28;20207;-88
2023/08/14 05:34:17;;;;;;;11.80;5.90;;;;;;;;;;5012125;28;20199;-89
2023/08/14 05:36:46;;;;;;;7.80;5.40;;;;;;;;;;5012542;28;20212;-88
2023/08/14 05:39:14;;;;;;;6.67;4.63;;;;;;;;;;5012312;28;20215;-87
2023/08/14 05:41:43;;;;;;;8.93;4.87;;;;;;;;;;5011631;28;20208;-86
2023/08/14 05:44:11;;;;;;;7.83;5.43;;;;;;;;;;5012189;28;20203;-86
2023/08/14 05:46:43;;;;;;;7.73;5.13;;;;;;;;;;5015835;28;20210;-86
2023/08/14 05:49:15;;;;;;;10.50;5.53;;;;;;;;;;5015978;28;20199;-86
2023/08/14 05:51:44;;;;;;;6.97;4.30;;;;;;;;;;5015569;28;20239;-86
2023/08/14 05:54:13;;;;;;;7.03;5.03;;;;;;;;;;5016236;28;20195;-86
2023/08/14 05:56:41;;;;;;;8.87;4.67;;;;;;;;;;5016354;28;20226;-86
2023/08/14 05:59:10;;;;;;;8.53;4.57;;;;;;;;;;5015318;28;20241;-86
2023/08/14 06:01:39;;;;;;;7.47;4.30;;;;;;;;;;5015764;28;20207;-87
2023/08/14 06:04:09;;;;;;;6.77;5.20;;;;;;;;;;5016254;28;20261;-87
2023/08/14 06:06:38;;;;;;;7.27;3.97;;;;;;;;;;5015791;28;20266;-87
2023/08/14 06:09:06;;;;;;;5.63;3.73;;;;;;;;;;5015401;28;20203;-84
2023/08/14 06:11:35;;;;;;;5.27;4.27;;;;;;;;;;5015474;28;20203;-84
2023/08/14 06:14:04;;;;;;;5.30;3.50;;;;;;;;;;5015888;28;20199;-83
2023/08/14 06:16:32;;;;;;;6.03;3.77;;;;;;;;;;5015596;28;20210;-83
2023/08/14 06:19:01;;;;;;;5.47;3.53;;;;;;;;;;5015228;28;20227;-84
2023/08/14 06:21:31;;;;;;;7.93;4.43;;;;;;;;;;5015277;28;20211;-83
2023/08/14 06:23:59;;;;;;;8.73;4.50;;;;;;;;;;5015514;28;20311;-84
2023/08/14 06:26:28;;;;;;;6.53;1.80;;;;;;;;;;5014918;28;20243;-86
2023/08/14 06:28:56;;;;;;;4.00;2.23;;;;;;;;;;5014969;28;20208;-86
2023/08/14 06:31:25;;;;;;;4.97;2.87;;;;;;;;;;5015072;28;20192;-83
2023/08/14 06:33:53;;;;;;;2.40;2.20;;;;;;;;;;5015409;28;20230;-86
2023/08/14 06:36:22;;;;;;;2.57;2.00;;;;;;;;;;5014732;28;20199;-86
2023/08/14 06:38:52;;;;;;;4.30;3.33;;;;;;;;;;5015079;28;20204;-86
2023/08/14 06:41:21;;;;;;;7.67;3.17;;;;;;;;;;5014468;28;20225;-86
2023/08/14 06:43:49;;;;;;;6.77;3.07;;;;;;;;;;5014672;28;20327;-86
2023/08/14 06:46:19;;;;;;;9.53;2.50;;;;;;;;;;5014601;28;20204;-85
2023/08/14 06:48:48;;;;;;;3.93;2.90;;;;;;;;;;5014639;28;20226;-83
2023/08/14 06:51:16;;;;;;;3.40;2.30;;;;;;;;;;5014258;28;20222;-84
2023/08/14 06:53:45;;;;;;;4.63;4.10;;;;;;;;;;5014184;28;20203;-84
2023/08/14 06:56:15;;;;;;;7.17;3.77;;;;;;;;;;5014155;28;20272;-84
2023/08/14 06:58:43;;;;;;;2.33;1.60;;;;;;;;;;5013642;28;20235;-84
2023/08/14 07:01:12;;;;;;;2.50;1.83;;;;;;;;;;5013907;28;20280;-84
2023/08/14 07:03:40;;;;;;;9.00;3.37;;;;;;;;;;5014824;28;20200;-84
2023/08/14 07:06:09;;;;;;;4.03;2.50;;;;;;;;;;5014416;28;20204;-84
2023/08/14 07:08:38;;;;;;;6.60;4.43;;;;;;;;;;5014435;28;20202;-85
2023/08/14 07:11:06;;;;;;;3.50;2.10;;;;;;;;;;5013900;28;20258;-83
2023/08/14 07:13:36;;;;;;;3.87;2.77;;;;;;;;;;5014263;28;20204;-84
2023/08/14 07:16:05;;;;;;;4.90;3.60;;;;;;;;;;5014274;28;20206;-84
2023/08/14 07:18:33;;;;;;;6.83;3.50;;;;;;;;;;5013829;28;20303;-84
2023/08/14 07:21:02;;;;;;;4.67;2.73;;;;;;;;;;5013460;28;20220;-85
2023/08/14 07:23:31;;;;;;;6.67;3.20;;;;;;;;;;5014273;28;20206;-85
2023/08/14 07:26:03;;;;;;;2.80;2.33;;;;;;;;;;5014161;28;20238;-84
2023/08/14 07:28:32;;;;;;;5.43;2.97;;;;;;;;;;5013859;28;20254;-84
2023/08/14 07:31:02;;;;;;;6.43;2.57;;;;;;;;;;5014288;28;20200;-84
2023/08/14 07:33:30;;;;;;;4.63;3.47;;;;;;;;;;5014093;28;20204;-84
2023/08/14 07:35:59;;;;;;;3.50;2.20;;;;;;;;;;5013940;28;20302;-84
2023/08/14 07:38:28;;;;;;;7.73;3.70;;;;;;;;;;5013596;28;20210;-85
2023/08/14 07:40:59;;;;;;;5.87;3.10;;;;;;;;;;5013716;28;20215;-83
2023/08/14 07:43:28;;;;;;;6.67;3.47;;;;;;;;;;5014035;28;20214;-84
2023/08/14 07:45:56;;;;;;;8.27;4.10;;;;;;;;;;5013615;28;20206;-85
2023/08/14 07:48:26;;;;;;;4.13;2.10;;;;;;;;;;5014081;28;20270;-84
2023/08/14 07:50:55;;;;;;;1.80;1.67;;;;;;;;;;5013750;28;20232;-84
2023/08/14 07:53:23;;;;;;;4.93;3.90;;;;;;;;;;5013578;28;20286;-84
2023/08/14 07:55:52;;;;;;;2.33;2.13;;;;;;;;;;5013304;28;20196;-84
2023/08/14 07:58:20;;;;;;;5.53;4.77;;;;;;;;;;5013382;28;20240;-84
2023/08/14 08:00:49;;;;;;;8.13;4.53;;;;;;;;;;5013521;28;20221;-84
2023/08/14 08:03:18;;;;;;;6.90;3.10;;;;;;;;;;5012887;28;20211;-84
2023/08/14 08:05:48;;;;;;;1.03;0.83;;;;;;;;;;5013584;28;20217;-84
2023/08/14 08:08:16;;;;;;;3.77;3.30;;;;;;;;;;5013035;28;20249;-83
2023/08/14 08:10:45;;;;;;;4.77;3.27;;;;;;;;;;5013254;28;20297;-83
2023/08/14 08:13:13;;;;;;;5.80;3.50;;;;;;;;;;5012746;28;20284;-83
2023/08/14 08:15:42;;;;;;;3.93;2.83;;;;;;;;;;5013518;28;20206;-83
2023/08/14 08:18:10;;;;;;;4.10;3.70;;;;;;;;;;5013357;28;20213;-83
2023/08/14 08:20:39;;;;;;;6.63;3.20;;;;;;;;;;5012839;28;20312;-83
2023/08/14 08:23:09;;;;;;;5.03;1.93;;;;;;;;;;5013314;28;20210;-83
2023/08/14 08:25:37;;;;;;;8.87;4.27;;;;;;;;;;5013507;28;20211;-91
2023/08/14 08:28:06;;;;;;;1.97;1.63;;;;;;;;;;5013277;28;20206;-87
2023/08/14 08:30:34;;;;;;;8.03;2.87;;;;;;;;;;5013206;28;20210;-88
2023/08/14 08:33:03;;;;;;;3.50;1.87;;;;;;;;;;5013258;28;20212;-89
2023/08/14 08:35:32;;;;;;;2.43;1.83;;;;;;;;;;5013395;28;20192;-88
2023/08/14 08:38:00;;;;;;;4.23;2.67;;;;;;;;;;5013127;28;20294;-88
2023/08/14 08:40:31;;;;;;;3.03;2.50;;;;;;;;;;5012929;28;20204;-88
2023/08/14 08:43:00;;;;;;;0.80;0.80;;;;;;;;;;5013320;28;20216;-89
2023/08/14 08:45:32;;;;;;;4.23;2.03;;;;;;;;;;5013250;28;20208;-89
2023/08/14 08:48:02;;;;;;;3.57;3.03;;;;;;;;;;5013238;28;20210;-88
2023/08/14 08:50:31;;;;;;;2.70;2.17;;;;;;;;;;5012741;28;20212;-89
2023/08/14 08:53:00;;;;;;;1.57;1.47;;;;;;;;;;5012897;28;20209;-89
2023/08/14 08:55:28;;;;;;;5.67;2.10;;;;;;;;;;5012771;28;20265;-89
2023/08/14 08:57:59;;;;;;;3.53;2.00;;;;;;;;;;5012598;28;20243;-89
2023/08/14 09:00:28;;;;;;;2.25;2.05;;;;;;;;;;5012925;28;20191;-88
2023/08/14 09:02:57;;;;;;;0.40;0.40;;;;;;;;;;5013131;28;20212;-89
2023/08/14 09:05:25;;;;;;;2.87;2.03;;;;;;;;;;5012051;28;20200;-89
2023/08/14 09:07:54;;;;;;;2.27;1.40;;;;;;;;;;5012831;28;20212;-88
2023/08/14 09:10:22;;;;;;;8.23;2.37;;;;;;;;;;5012795;28;20211;-89
2023/08/14 09:12:51;;;;;;;3.00;1.73;;;;;;;;;;5012633;28;20197;-90
2023/08/14 09:15:23;;;;;;;3.13;1.80;;;;;;;;;;5012296;28;20202;-90
2023/08/14 09:17:53;;;;;;;3.73;2.07;;;;;;;;;;5013254;28;20209;-90
2023/08/14 09:20:22;;;;;;;2.10;1.37;;;;;;;;;;5012817;28;20213;-89
2023/08/14 09:22:58;;;;;;;3.03;2.10;;;;;;;;;;5012206;28;20229;-90
2023/08/14 09:25:27;;;;;;;6.60;2.00;;;;;;;;;;5012757;28;20296;-90
2023/08/14 09:27:56;;;;;;;1.37;1.00;;;;;;;;;;5012620;28;20299;-90
2023/08/14 09:30:27;;;;;;;3.40;2.27;;;;;;;;;;5012907;28;20242;-86
2023/08/14 09:32:55;;;;;;;5.23;2.20;;;;;;;;;;5012001;28;20206;-90
2023/08/14 09:35:24;;;;;;;3.60;2.10;;;;;;;;;;5012757;28;20227;-91
2023/08/14 09:37:53;;;;;;;5.83;2.70;;;;;;;;;;5012707;28;20221;-90
2023/08/14 09:40:22;;;;;;;2.03;1.53;;;;;;;;;;5011788;28;20223;-90
2023/08/14 09:42:51;;;;;;;5.50;2.57;;;;;;;;;;5011894;28;20270;-90
2023/08/14 09:45:23;;;;;;;6.00;2.60;;;;;;;;;;5012781;28;20202;-90
2023/08/14 09:47:58;;;;;;;4.83;2.53;;;;;;;;;;5012376;28;20236;-91
2023/08/14 09:50:29;;;;;;;3.77;2.23;;;;;;;;;;5011744;28;20208;-90
2023/08/14 09:52:58;;;;;;;1.53;1.00;;;;;;;;;;5011981;28;20273;-91
2023/08/14 09:55:28;;;;;;;3.83;2.50;;;;;;;;;;5012425;28;20328;-90
2023/08/14 09:57:57;;;;;;;3.00;2.47;;;;;;;;;;5011845;28;20246;-90
2023/08/14 10:00:28;;;;;;;4.37;2.20;;;;;;;;;;5011907;28;20197;-90
2023/08/14 10:02:58;;;;;;;3.33;1.80;;;;;;;;;;5011812;28;20237;-90
2023/08/14 10:05:33;;;;;;;7.17;2.30;;;;;;;;;;5012259;28;20202;-90
2023/08/14 10:08:03;;;;;;;4.83;2.27;;;;;;;;;;5011666;28;20210;-90
2023/08/14 10:10:33;;;;;;;3.80;2.13;;;;;;;;;;5012344;28;20207;-90
2023/08/14 10:13:04;;;;;;;3.70;2.33;;;;;;;;;;5011979;28;20200;-90
2023/08/14 10:15:34;;;;;;;3.00;2.07;;;;;;;;;;5011586;28;20203;-90
2023/08/14 10:18:06;;;;;;;4.20;2.17;;;;;;;;;;5012345;28;20287;-90
2023/08/14 10:20:35;;;;;;;6.03;2.23;;;;;;;;;;5012215;28;20287;-90
2023/08/14 10:23:04;;;;;;;5.03;2.33;;;;;;;;;;5012230;28;20219;-90
2023/08/14 10:25:37;;;;;;;4.60;1.97;;;;;;;;;;5012007;28;20299;-90
2023/08/14 10:28:07;;;;;;;5.10;2.57;;;;;;;;;;5012432;28;20205;-90
2023/08/14 10:30:36;;;;;;;4.57;2.60;;;;;;;;;;5012747;28;20286;-91
2023/08/14 10:33:06;;;;;;;5.50;2.20;;;;;;;;;;5013626;28;20254;-88
2023/08/14 10:35:45;;;;;;;1.60;0.70;;;;;;;;;;5015231;28;20204;-83
2023/08/14 10:38:16;;;;;;;1.90;1.23;;;;;;;;;;5015257;28;20227;-83
2023/08/14 10:40:53;;;;;;;0.93;0.80;;;;;;;;;;5015316;28;20199;-84
2023/08/14 10:43:27;;;;;;;0.73;0.37;;;;;;;;;;5015061;28;20218;-83
2023/08/14 10:45:59;;;;;;;6.63;2.03;;;;;;;;;;5015365;28;20202;-88
2023/08/14 10:48:38;;;;;;;3.23;1.70;;;;;;;;;;5013059;28;20301;-89
2023/08/14 10:51:09;;;;;;;5.97;1.50;;;;;;;;;;5008699;28;20279;-87
2023/08/14 10:53:37;;;;;;;4.60;1.63;;;;;;;;;;5011875;28;20218;-89
2023/08/14 10:56:06;;;;;;;4.97;1.87;;;;;;;;;;5010693;28;20238;-87
2023/08/14 10:58:38;;;;;;;2.77;1.57;;;;;;;;;;5009014;28;20239;-88
2023/08/14 11:01:08;;;;;;;3.50;2.20;;;;;;;;;;5011196;28;20211;-89
2023/08/14 11:03:56;;;;;;;4.90;2.30;;;;;;;;;;5009455;28;20222;-88
2023/08/14 11:06:24;;;;;;;4.97;2.40;;;;;;;;;;5014790;28;20235;-88
2023/08/14 11:08:58;;;;;;;4.77;2.47;;;;;;;;;;5013415;28;20318;-89
2023/08/14 11:11:27;;;;;;;2.63;1.70;;;;;;;;;;5013017;28;20222;-89
2023/08/14 11:13:56;;;;;;;4.80;2.03;;;;;;;;;;5014608;28;20204;-87
2023/08/14 11:16:24;;;;;;;3.73;2.30;;;;;;;;;;5007244;28;20298;-88
2023/08/14 11:18:55;;;;;;;5.00;2.30;;;;;;;;;;5011471;28;20260;-88
2023/08/14 11:21:26;;;;;;;5.67;2.00;;;;;;;;;;5013519;28;20242;-88
2023/08/14 11:23:59;;;;;;;3.10;1.60;;;;;;;;;;5014247;28;20232;-88
2023/08/14 11:26:31;;;;;;;4.03;2.67;;;;;;;;;;5013963;28;20225;-88
2023/08/14 11:28:59;;;;;;;4.13;1.80;;;;;;;;;;5014477;28;20291;-88
2023/08/14 11:31:31;;;;;;;3.53;1.70;;;;;;;;;;5013292;28;20203;-87
2023/08/14 11:34:09;;;;;;;1.20;1.00;;;;;;;;;;5014509;28;20257;-88
2023/08/14 11:36:41;;;;;;;12.07;1.37;;;;;;;;;;5014187;28;20212;-88
2023/08/14 11:39:15;;;;;;;6.53;1.87;;;;;;;;;;5014524;28;20217;-89
2023/08/14 11:41:43;;;;;;;4.50;1.87;;;;;;;;;;5014455;28;20203;-89
2023/08/14 11:44:12;;;;;;;5.07;2.30;;;;;;;;;;5013319;28;20222;-88
2023/08/14 11:46:41;;;;;;;3.07;1.80;;;;;;;;;;5014450;28;20304;-88
2023/08/14 11:49:12;;;;;;;4.00;1.90;;;;;;;;;;5014791;28;20215;-88
2023/08/14 11:51:41;;;;;;;2.57;2.10;;;;;;;;;;5014698;28;20234;-87
2023/08/14 11:54:09;;;;;;;3.90;1.70;;;;;;;;;;5014346;28;20195;-88
2023/08/14 11:56:38;;;;;;;4.53;2.10;;;;;;;;;;5014644;28;20207;-87
2023/08/14 11:59:07;;;;;;;2.03;1.43;;;;;;;;;;5013751;28;20234;-90
2023/08/14 12:01:36;;;;;;;4.23;2.30;;;;;;;;;;5014113;28;20204;-89
2023/08/14 12:04:06;;;;;;;5.90;2.63;;;;;;;;;;5014132;28;20222;-87
2023/08/14 12:06:36;;;;;;;4.50;1.90;;;;;;;;;;5013975;28;20195;-88
2023/08/14 12:09:07;;;;;;;5.50;2.20;;;;;;;;;;5013996;28;20214;-87
2023/08/14 12:11:37;;;;;;;2.07;1.10;;;;;;;;;;5013299;28;20207;-86
2023/08/14 12:14:06;;;;;;;2.00;0.73;;;;;;;;;;5013665;28;20369;-88
2023/08/14 12:16:39;;;;;;;3.50;1.83;;;;;;;;;;5013829;28;20239;-87
2023/08/14 12:19:08;;;;;;;4.00;1.97;;;;;;;;;;5013247;28;20225;-87
2023/08/14 12:21:38;;;;;;;8.37;2.13;;;;;;;;;;5013603;28;20214;-88
2023/08/14 12:24:07;;;;;;;4.63;1.97;;;;;;;;;;5013441;28;20226;-88
2023/08/14 12:26:40;;;;;;;4.73;2.30;;;;;;;;;;5013745;28;20203;-87
2023/08/14 12:29:09;;;;;;;3.60;2.63;;;;;;;;;;5013400;28;20253;-88
2023/08/14 12:31:38;;;;;;;2.73;1.63;;;;;;;;;;5014173;28;20298;-88
2023/08/14 12:34:07;;;;;;;4.83;2.20;;;;;;;;;;5014070;28;20209;-88
2023/08/14 12:36:35;;;;;;;1.57;1.47;;;;;;;;;;5013403;28;20293;-87
2023/08/14 12:39:05;;;;;;;2.63;1.60;;;;;;;;;;5013006;28;20294;-88
2023/08/14 12:41:34;;;;;;;2.97;1.93;;;;;;;;;;5013448;28;20199;-86
2023/08/14 12:44:03;;;;;;;1.43;1.33;;;;;;;;;;5012957;28;20226;-86
2023/08/14 12:46:32;;;;;;;3.23;1.33;;;;;;;;;;5012740;28;20200;-87
2023/08/14 12:49:02;;;;;;;3.97;2.00;;;;;;;;;;5013035;28;20203;-86
2023/08/14 12:51:31;;;;;;;5.50;2.13;;;;;;;;;;5012643;28;20224;-87
2023/08/14 12:53:59;;;;;;;0.30;0.30;;;;;;;;;;5012260;28;20203;-86
2023/08/14 12:56:31;;;;;;;4.03;1.80;;;;;;;;;;5012328;28;20264;-86
2023/08/14 12:59:00;;;;;;;4.23;2.03;;;;;;;;;;5012700;28;20249;-87
2023/08/14 13:01:28;;;;;;;1.30;1.17;;;;;;;;;;5012759;28;20235;-87
2023/08/14 13:03:57;;;;;;;4.77;2.33;;;;;;;;;;5012366;28;20260;-86
2023/08/14 13:06:29;;;;;;;2.40;1.47;;;;;;;;;;5012960;28;20205;-85
2023/08/14 13:08:58;;;;;;;3.70;1.00;;;;;;;;;;5014280;28;20220;-86
2023/08/14 13:11:27;;;;;;;8.20;1.53;;;;;;;;;;5014129;28;20369;-86
2023/08/14 13:13:57;;;;;;;3.30;1.03;;;;;;;;;;5013613;28;20200;-85
2023/08/14 13:16:26;;;;;;;1.43;0.93;;;;;;;;;;5013015;28;20211;-84
2023/08/14 13:18:55;;;;;;;0.40;0.40;;;;;;;;;;5013275;28;20206;-85
2023/08/14 13:21:23;;;;;;;0.30;0.30;;;;;;;;;;5012227;28;20204;-86
2023/08/14 13:23:52;;;;;;;2.67;1.37;;;;;;;;;;5011955;28;20421;-85
2023/08/14 13:26:20;;;;;;;3.53;1.50;;;;;;;;;;5012296;28;20208;-85
2023/08/14 13:28:52;;;;;;;4.27;1.67;;;;;;;;;;5012638;28;20197;-85
2023/08/14 13:31:27;;;;;;;3.23;1.83;;;;;;;;;;5011584;28;20216;-86
2023/08/14 13:33:57;;;;;;;1.03;1.03;;;;;;;;;;5011879;28;20193;-86
2023/08/14 13:36:26;;;;;;;2.67;1.60;;;;;;;;;;5014982;28;20210;-86
2023/08/14 13:38:55;;;;;;;3.17;1.40;;;;;;;;;;5012671;28;20461;-87
2023/08/14 13:41:23;;;;;;;2.30;1.80;;;;;;;;;;5012007;28;20264;-87
2023/08/14 13:43:52;;;;;;;1.43;1.13;;;;;;;;;;5012349;28;20227;-88
2023/08/14 13:46:30;;;;;;;4.47;1.77;;;;;;;;;;5013522;28;20213;-89
2023/08/14 13:48:59;;;;;;;4.47;1.60;;;;;;;;;;5013835;28;20280;-89
2023/08/14 13:51:30;;;;;;;3.10;1.77;;;;;;;;;;5012631;28;20231;-85
2023/08/14 13:53:59;;;;;;;0.60;0.60;;;;;;;;;;5012365;28;20197;-85
2023/08/14 13:56:28;;;;;;;4.50;1.43;;;;;;;;;;5011579;28;20212;-85
2023/08/14 13:58:56;;;;;;;1.60;1.20;;;;;;;;;;5011393;28;20272;-84
2023/08/14 14:01:27;;;;;;;3.97;1.87;;;;;;;;;;5011562;28;20260;-86
2023/08/14 14:03:56;;;;;;;4.60;2.23;;;;;;;;;;5011926;28;20224;-85
2023/08/14 14:06:24;;;;;;;2.53;1.70;;;;;;;;;;5011890;28;20208;-85
2023/08/14 14:08:53;;;;;;;5.60;2.07;;;;;;;;;;5015798;28;20207;-85
2023/08/14 14:11:21;;;;;;;3.77;2.27;;;;;;;;;;5015716;28;20202;-85
2023/08/14 14:13:50;;;;;;;12.40;1.30;;;;;;;;;;5016061;28;20201;-85
2023/08/14 14:16:24;;;;;;;5.53;2.50;;;;;;;;;;5015782;28;20321;-85
2023/08/14 14:18:54;;;;;;;3.03;1.87;;;;;;;;;;5015823;28;20290;-85
2023/08/14 14:21:22;;;;;;;5.13;1.70;;;;;;;;;;5015899;28;20206;-85
2023/08/14 14:23:50;;;;;;;4.17;1.70;;;;;;;;;;5015894;28;20253;-85
2023/08/14 14:26:19;;;;;;;5.63;2.03;;;;;;;;;;5015643;28;20209;-85
2023/08/14 14:28:48;;;;;;;2.00;1.77;;;;;;;;;;5015458;28;20221;-86
2023/08/14 14:31:16;;;;;;;5.03;2.47;;;;;;;;;;5014714;28;20194;-85
2023/08/14 14:33:45;;;;;;;3.43;2.03;;;;;;;;;;5015226;28;20295;-84
2023/08/14 14:36:15;;;;;;;3.43;2.03;;;;;;;;;;5014929;28;20205;-84
2023/08/14 14:38:44;;;;;;;6.77;2.30;;;;;;;;;;5015172;28;20207;-85
2023/08/14 14:41:12;;;;;;;4.30;1.53;;;;;;;;;;4997734;28;20220;-85
2023/08/14 14:43:41;;;;;;;5.10;2.10;;;;;;;;;;5015093;28;20204;-85
2023/08/14 14:46:09;;;;;;;1.93;1.40;;;;;;;;;;5015228;28;20210;-85
2023/08/14 14:48:39;;;;;;;0.40;0.40;;;;;;;;;;5014780;28;20324;-84
2023/08/14 14:51:10;;;;;;;4.90;1.60;;;;;;;;;;5014479;28;20235;-82
2023/08/14 14:53:40;;;;;;;0.63;0.63;;;;;;;;;;5015016;28;20209;-82